CFM weather

Conklin (Leismer) Airport
Conklin, Alberta, Canada

Public forecast

Using degrees Celsius for public forecast. Weather courtesy of forecast.io.

METAR (pilot weather report)

Closest report is Fort McMurray Airport, 57.6 nm (106.6 km) N. Retrieved 2019/05/19 14:00 UTC (34 minutes ago):

CYMM 191400Z AUTO 12007KT 9SM CLR 13/M03 A3019 RMK SLP234

TAF (pilot weather forecast)

Closest forecast is Fort McMurray Airport, 57.6 nm (106.6 km) N. Retrieved 2019/05/19 13:39 UTC (55 minutes ago):

TAF CYMM 191238Z 1913/2001 12006KT P6SM SKC BECMG 1914/1916 16015KT RMK FCST BASED ON AUTO OBS. NXT FCST BY 191900Z